Amity, North Carolina
Current Conditions -  °F | °C
As of 5:55 AM on Wednesday 22 Oct 2014 (Local Time) from KRUQ Reporting Station
Clear Clear  
Wind Chill: 40°   Ceiling: Unl
Heat Index: 43°   Visibility: 10mi
Dew Point: 38°   Wind: 5mph
Humidity: 81%   Direction: 280°W
Pressure: 30.01"   Gusts: NA
Location:  35.7427°N, 80.712°W
Report Text: KRUQ 220955Z AUTO 28004KT 10SM CLR 06/03 A3001 RMK AO2 T00620032
Loading
Personal Weather Stations






























Interactive Weather Map New forecast layout! Learn more

10-Day Weather Forecast

Advertisements
Track Severe Weather on mobile